createdAt,value
2022-09-23T00:00:16.525Z,4.43
2022-09-23T00:02:48.928Z,4.30
2022-09-23T00:05:21.942Z,3.70
2022-09-23T00:07:55.600Z,4.40
2022-09-23T00:10:31.098Z,4.25
2022-09-23T00:13:03.817Z,4.20
2022-09-23T00:15:40.384Z,3.92
2022-09-23T00:18:12.357Z,3.88
2022-09-23T00:20:45.503Z,4.32
2022-09-23T00:23:17.370Z,3.90
2022-09-23T00:25:58.060Z,4.03
2022-09-23T00:28:31.362Z,3.78
2022-09-23T00:31:06.003Z,4.05
2022-09-23T00:33:38.890Z,3.75
2022-09-23T00:36:15.843Z,3.75
2022-09-23T00:38:48.541Z,3.95
2022-09-23T00:41:21.326Z,3.70
2022-09-23T00:44:02.683Z,4.47
2022-09-23T00:46:41.396Z,3.50
2022-09-23T00:49:26.169Z,3.88
2022-09-23T00:52:13.126Z,3.67
2022-09-23T00:54:48.482Z,4.22
2022-09-23T00:57:20.635Z,3.97
2022-09-23T00:59:53.336Z,3.92
2022-09-23T01:02:26.431Z,4.00
2022-09-23T01:04:59.675Z,3.83
2022-09-23T01:07:32.772Z,3.70
2022-09-23T01:10:06.337Z,3.50
2022-09-23T01:13:06.127Z,3.53
2022-09-23T01:15:50.418Z,4.63
2022-09-23T01:18:43.957Z,3.97
2022-09-23T01:21:48.261Z,3.80
2022-09-23T01:24:49.576Z,3.35
2022-09-23T01:27:46.494Z,3.30
2022-09-23T01:31:15.978Z,3.30
2022-09-23T01:33:57.726Z,4.00
2022-09-23T01:36:43.617Z,3.65
2022-09-23T01:39:35.262Z,3.70
2022-09-23T01:42:30.024Z,3.28
2022-09-23T01:45:22.943Z,3.30
2022-09-23T01:48:14.259Z,3.63
2022-09-23T01:50:56.690Z,3.85
2022-09-23T01:53:39.605Z,3.92
2022-09-23T01:56:24.461Z,4.05
2022-09-23T01:59:29.760Z,4.05
2022-09-23T02:02:21.867Z,4.18
2022-09-23T02:05:02.505Z,3.75
2022-09-23T02:07:41.957Z,3.40
2022-09-23T02:10:25.496Z,3.47
2022-09-23T02:13:05.836Z,3.60
2022-09-23T02:15:50.116Z,3.83
2022-09-23T02:18:31.357Z,3.85
2022-09-23T02:21:09.082Z,3.45
2022-09-23T02:23:52.712Z,3.90
2022-09-23T02:26:38.081Z,3.67
2022-09-23T02:29:21.890Z,4.20
2022-09-23T02:32:15.508Z,3.47
2022-09-23T02:35:12.661Z,3.70
2022-09-23T02:38:29.560Z,4.25
2022-09-23T02:41:14.205Z,3.95
2022-09-23T02:44:00.435Z,4.05
2022-09-23T02:46:33.901Z,3.75
2022-09-23T02:49:17.437Z,3.58
2022-09-23T02:51:51.063Z,4.13
2022-09-23T02:54:27.691Z,4.20
2022-09-23T02:57:07.372Z,4.00
2022-09-23T02:59:39.352Z,4.07
2022-09-23T03:02:50.009Z,3.95
2022-09-23T03:05:31.695Z,3.45
2022-09-23T03:08:53.669Z,4.40
2022-09-23T03:11:26.304Z,4.10
2022-09-23T03:14:20.221Z,4.15
2022-09-23T03:17:22.347Z,3.70
2022-09-23T03:20:09.708Z,3.95
2022-09-23T03:22:51.240Z,3.90
2022-09-23T03:25:25.934Z,4.13
2022-09-23T03:28:00.851Z,4.07
2022-09-23T03:30:38.686Z,4.18
2022-09-23T03:33:16.653Z,4.47
2022-09-23T03:36:16.858Z,4.32
2022-09-23T03:38:55.767Z,4.05
2022-09-23T03:41:44.322Z,3.75
2022-09-23T03:44:17.468Z,3.70
2022-09-23T03:46:50.590Z,3.78
2022-09-23T03:49:30.059Z,3.85
2022-09-23T03:52:03.828Z,3.60
2022-09-23T03:54:35.687Z,3.20
2022-09-23T03:57:08.683Z,3.78
2022-09-23T03:59:41.405Z,3.90
2022-09-23T04:02:13.466Z,3.50
2022-09-23T04:04:46.812Z,3.80
2022-09-23T04:07:19.413Z,3.75
2022-09-23T04:09:52.666Z,3.58
2022-09-23T04:12:24.533Z,3.53
2022-09-23T04:14:57.215Z,3.67
2022-09-23T04:17:29.106Z,3.90
2022-09-23T04:20:02.065Z,4.20
2022-09-23T04:22:35.411Z,3.50
2022-09-23T04:25:08.052Z,3.80
2022-09-23T04:27:40.799Z,3.78
2022-09-23T04:30:13.981Z,3.88
2022-09-23T04:32:45.827Z,3.60
2022-09-23T04:35:19.135Z,3.60
2022-09-23T04:37:51.540Z,3.60
2022-09-23T04:40:24.301Z,4.07
2022-09-23T04:42:56.178Z,3.90
2022-09-23T04:45:31.003Z,4.13
2022-09-23T04:48:03.492Z,4.22
2022-09-23T04:50:37.418Z,5.03
2022-09-23T04:53:10.222Z,4.85
2022-09-23T04:55:43.902Z,4.30
2022-09-23T04:58:16.153Z,4.28
2022-09-23T05:00:49.090Z,3.97
2022-09-23T05:03:21.393Z,3.92
2022-09-23T05:05:53.308Z,4.22
2022-09-23T05:08:26.407Z,4.47
2022-09-23T05:10:59.902Z,4.80
2022-09-23T05:13:33.085Z,4.53
2022-09-23T05:16:10.293Z,4.43
2022-09-23T05:18:44.260Z,4.20
2022-09-23T05:21:21.477Z,4.10
2022-09-23T05:23:56.399Z,4.57
2022-09-23T05:26:32.006Z,4.85
2022-09-23T05:29:04.159Z,4.43
2022-09-23T05:31:37.240Z,4.25
2022-09-23T05:34:09.714Z,4.43
2022-09-23T05:36:42.389Z,3.88
2022-09-23T05:39:14.298Z,4.25
2022-09-23T05:41:47.091Z,3.78
2022-09-23T05:44:19.402Z,4.10
2022-09-23T05:46:51.392Z,4.30
2022-09-23T05:49:37.942Z,4.53
2022-09-23T05:52:17.166Z,4.00
2022-09-23T05:54:50.255Z,4.10
2022-09-23T05:57:22.942Z,4.47
2022-09-23T05:59:55.232Z,4.10
2022-09-23T06:02:27.651Z,3.83
2022-09-23T06:05:00.279Z,4.55
2022-09-23T06:07:33.080Z,3.90
2022-09-23T06:10:06.532Z,4.10
2022-09-23T06:12:38.806Z,3.95
2022-09-23T06:15:13.113Z,4.10
2022-09-23T06:17:45.043Z,4.30
2022-09-23T06:23:11.383Z,3.58
2022-09-23T06:25:43.286Z,3.95
2022-09-23T06:28:16.181Z,3.72
2022-09-23T06:30:49.374Z,4.15
2022-09-23T06:33:32.413Z,4.40
2022-09-23T06:36:08.842Z,4.28
2022-09-23T06:38:45.009Z,3.85
2022-09-23T06:41:17.265Z,4.75
2022-09-23T06:43:49.866Z,3.95
2022-09-23T06:46:21.803Z,4.15
2022-09-23T06:48:54.495Z,4.18
2022-09-23T06:51:26.768Z,4.47
2022-09-23T06:53:59.368Z,4.10
2022-09-23T06:56:34.850Z,3.75
2022-09-23T06:59:13.343Z,3.70
2022-09-23T07:01:47.498Z,4.35
2022-09-23T07:04:20.293Z,4.00
2022-09-23T07:06:54.754Z,3.83
2022-09-23T07:09:28.142Z,4.20
2022-09-23T07:12:00.092Z,4.30
2022-09-23T07:14:32.684Z,4.78
2022-09-23T07:17:04.635Z,4.35
2022-09-23T07:19:37.169Z,4.77
2022-09-23T07:22:09.082Z,4.05
2022-09-23T07:24:41.632Z,4.28
2022-09-23T07:27:16.611Z,4.00
2022-09-23T07:29:52.135Z,4.10
2022-09-23T07:32:24.014Z,3.90
2022-09-23T07:34:57.851Z,3.75
2022-09-23T07:37:29.685Z,3.92
2022-09-23T07:40:02.385Z,4.55
2022-09-23T07:42:34.218Z,4.63
2022-09-23T07:45:09.313Z,4.40
2022-09-23T07:47:41.222Z,4.40
2022-09-23T07:50:13.711Z,4.65
2022-09-23T07:52:45.559Z,4.82
2022-09-23T07:55:20.947Z,5.07
2022-09-23T07:57:53.120Z,4.80
2022-09-23T08:00:25.624Z,5.13
2022-09-23T08:02:57.521Z,4.88
2022-09-23T08:05:30.505Z,5.10
2022-09-23T08:08:02.444Z,4.40
2022-09-23T08:10:34.676Z,4.67
2022-09-23T08:13:06.937Z,5.00
2022-09-23T08:15:40.644Z,4.45
2022-09-23T08:18:12.497Z,3.97
2022-09-23T08:20:47.352Z,4.00
2022-09-23T08:23:21.335Z,3.80
2022-09-23T08:25:59.953Z,4.65
2022-09-23T08:28:36.271Z,4.10
2022-09-23T08:31:08.477Z,4.60
2022-09-23T08:33:41.881Z,4.20
2022-09-23T08:36:14.211Z,4.20
2022-09-23T08:38:46.406Z,4.40
2022-09-23T08:41:33.168Z,4.00
2022-09-23T08:44:15.424Z,4.28
2022-09-23T08:47:03.424Z,4.00
2022-09-23T08:49:40.928Z,4.10
2022-09-23T08:52:29.523Z,5.03
2022-09-23T08:55:04.077Z,7.25
2022-09-23T08:58:25.644Z,14.15
2022-09-23T09:01:14.517Z,4.38
2022-09-23T09:03:55.738Z,3.90
2022-09-23T09:07:37.889Z,4.32
2022-09-23T09:10:14.008Z,4.00
2022-09-23T09:13:07.330Z,3.88
2022-09-23T09:16:13.481Z,4.00
2022-09-23T09:18:56.222Z,3.90
2022-09-23T09:21:41.085Z,4.00
2022-09-23T09:24:21.649Z,4.03
2022-09-23T09:26:53.897Z,4.88
2022-09-23T09:29:39.175Z,4.05
2022-09-23T09:32:36.073Z,4.80
2022-09-23T09:35:26.060Z,4.95
2022-09-23T09:37:57.916Z,5.18
2022-09-23T09:40:30.574Z,4.45
2022-09-23T09:43:04.653Z,5.00
2022-09-23T09:46:01.931Z,4.90
2022-09-23T09:48:54.043Z,5.10
2022-09-23T09:51:28.944Z,4.90
2022-09-23T09:54:27.628Z,4.90
2022-09-23T09:57:05.596Z,4.70
2022-09-23T09:59:42.371Z,3.83
2022-09-23T10:02:30.714Z,4.90
2022-09-23T10:05:07.508Z,5.05
2022-09-23T10:07:39.689Z,5.00
2022-09-23T10:10:32.454Z,4.88
2022-09-23T10:13:16.091Z,7.23
2022-09-23T10:15:48.669Z,4.53
2022-09-23T10:18:32.213Z,5.25
2022-09-23T10:21:27.969Z,4.80
2022-09-23T10:24:02.631Z,4.30
2022-09-23T10:26:43.676Z,4.27
2022-09-23T10:29:37.866Z,4.32
2022-09-23T10:32:31.073Z,5.05
2022-09-23T10:35:09.682Z,4.07
2022-09-23T10:37:59.374Z,4.05
2022-09-23T10:40:59.558Z,3.70
2022-09-23T10:44:04.598Z,3.50
2022-09-23T10:46:44.780Z,3.92
2022-09-23T10:49:58.114Z,3.47
2022-09-23T10:53:02.733Z,3.83
2022-09-23T10:55:46.653Z,3.40
2022-09-23T10:58:47.453Z,3.75
2022-09-23T11:01:35.990Z,3.28
2022-09-23T11:04:35.940Z,3.53
2022-09-23T11:07:40.631Z,3.22
2022-09-23T11:10:56.173Z,3.30
2022-09-23T11:13:54.206Z,3.65
2022-09-23T11:17:00.564Z,3.40
2022-09-23T11:19:56.239Z,3.17
2022-09-23T11:23:26.438Z,3.83
2022-09-23T11:26:33.501Z,3.43
2022-09-23T11:29:43.199Z,3.55
2022-09-23T11:32:45.672Z,3.20
2022-09-23T11:35:33.107Z,3.45
2022-09-23T11:38:12.329Z,3.53
2022-09-23T11:40:46.761Z,4.00
2022-09-23T11:43:28.809Z,3.28
2022-09-23T11:46:07.061Z,3.50
2022-09-23T11:48:49.203Z,3.25
2022-09-23T11:51:40.736Z,2.90
2022-09-23T11:54:25.302Z,3.40
2022-09-23T11:57:01.601Z,3.67
2022-09-23T12:03:06.041Z,3.30
2022-09-23T12:05:45.943Z,3.47
2022-09-23T12:08:36.987Z,3.37
2022-09-23T12:11:51.099Z,3.28
2022-09-23T12:15:05.234Z,3.30
2022-09-23T12:18:09.376Z,3.58
2022-09-23T12:20:59.764Z,3.58
2022-09-23T12:24:19.158Z,3.77
2022-09-23T12:26:59.151Z,3.40
2022-09-23T12:29:32.772Z,3.50
2022-09-23T12:32:09.777Z,3.80
2022-09-23T12:34:50.201Z,3.83
2022-09-23T12:37:43.213Z,3.77
2022-09-23T12:40:35.415Z,3.72
2022-09-23T12:43:35.850Z,3.75
2022-09-23T12:46:18.408Z,3.45
2022-09-23T12:49:01.631Z,3.90
2022-09-23T12:51:37.695Z,4.03
2022-09-23T12:54:23.625Z,3.88
2022-09-23T12:56:56.245Z,3.95
2022-09-23T12:59:32.010Z,3.40
2022-09-23T13:03:11.806Z,3.85
2022-09-23T13:06:20.091Z,4.03
2022-09-23T13:08:53.094Z,3.70
2022-09-23T13:11:29.031Z,3.60
2022-09-23T13:14:04.531Z,3.90
2022-09-23T13:16:44.066Z,4.07
2022-09-23T13:19:28.181Z,3.53
2022-09-23T13:22:12.253Z,5.82
2022-09-23T13:24:54.538Z,5.68
2022-09-23T13:27:34.522Z,3.72
2022-09-23T13:30:26.330Z,3.90
2022-09-23T13:33:27.536Z,3.40
2022-09-23T13:36:04.628Z,3.25
2022-09-23T13:38:36.886Z,3.30
2022-09-23T13:41:21.091Z,3.35
2022-09-23T13:43:59.172Z,3.30
2022-09-23T13:46:43.461Z,3.67
2022-09-23T13:49:33.998Z,3.65
2022-09-23T13:52:23.653Z,3.35
2022-09-23T13:54:56.430Z,4.03
2022-09-23T13:57:31.201Z,3.90
2022-09-23T14:00:25.627Z,3.40
2022-09-23T14:02:57.473Z,3.72
2022-09-23T14:05:36.301Z,3.50
2022-09-23T14:08:08.634Z,3.42
2022-09-23T14:10:43.228Z,4.25
2022-09-23T14:13:29.120Z,3.60
2022-09-23T14:16:04.411Z,3.80
2022-09-23T14:18:47.140Z,4.25
2022-09-23T14:21:37.284Z,4.10
2022-09-23T14:24:24.099Z,3.60
2022-09-23T14:27:16.225Z,3.73
2022-09-23T14:29:49.464Z,3.30
2022-09-23T14:32:27.865Z,3.63
2022-09-23T14:35:00.080Z,4.10
2022-09-23T14:37:57.337Z,3.90
2022-09-23T14:40:38.559Z,3.70
2022-09-23T14:43:23.321Z,3.50
2022-09-23T14:45:59.070Z,3.30
2022-09-23T14:48:34.163Z,3.92
2022-09-23T14:51:13.251Z,3.22
2022-09-23T14:53:49.131Z,3.63
2022-09-23T14:56:24.130Z,3.60
2022-09-23T14:59:00.636Z,3.33
2022-09-23T15:01:33.291Z,3.20
2022-09-23T15:04:22.756Z,3.83
2022-09-23T15:06:59.991Z,3.93
2022-09-23T15:09:38.868Z,9.38
2022-09-23T15:12:19.310Z,3.83
2022-09-23T15:14:56.603Z,3.53
2022-09-23T15:17:37.867Z,4.00
2022-09-23T15:20:30.129Z,4.33
2022-09-23T15:23:02.470Z,4.28
2022-09-23T15:25:40.624Z,4.07
2022-09-23T15:28:13.226Z,3.90
2022-09-23T15:30:46.015Z,3.85
2022-09-23T15:33:18.865Z,4.07
2022-09-23T15:35:51.151Z,4.07
2022-09-23T15:38:24.491Z,4.90
2022-09-23T15:40:56.513Z,5.32
2022-09-23T15:43:29.270Z,4.13
2022-09-23T15:46:20.094Z,3.90
2022-09-23T15:49:01.605Z,4.10
2022-09-23T15:51:34.525Z,4.45
2022-09-23T15:54:12.872Z,3.75
2022-09-23T15:56:45.663Z,3.92
2022-09-23T15:59:19.535Z,3.70
2022-09-23T16:01:52.447Z,4.88
2022-09-23T16:04:26.485Z,4.32
2022-09-23T16:06:58.970Z,4.28
2022-09-23T16:09:32.068Z,4.20
2022-09-23T16:12:04.222Z,4.20
2022-09-23T16:14:36.931Z,4.32
2022-09-23T16:17:13.477Z,4.40
2022-09-23T16:19:46.242Z,4.28
2022-09-23T16:22:18.585Z,3.90
2022-09-23T16:24:50.487Z,4.27
2022-09-23T16:27:23.171Z,4.32
2022-09-23T16:29:55.458Z,4.03
2022-09-23T16:32:27.712Z,4.60
2022-09-23T16:35:00.796Z,4.30
2022-09-23T16:37:33.214Z,4.07
2022-09-23T16:40:07.751Z,4.70
2022-09-23T16:42:40.581Z,4.38
2022-09-23T16:45:19.406Z,4.10
2022-09-23T16:47:52.619Z,4.40
2022-09-23T16:50:24.963Z,4.60
2022-09-23T16:52:57.252Z,4.50
2022-09-23T16:55:29.475Z,4.30
2022-09-23T16:58:02.563Z,4.90
2022-09-23T17:00:52.838Z,4.90
2022-09-23T17:03:41.210Z,4.87
2022-09-23T17:06:15.085Z,5.00
2022-09-23T17:08:51.023Z,4.65
2022-09-23T17:11:24.015Z,5.03
2022-09-23T17:13:55.924Z,4.60
2022-09-23T17:16:32.746Z,4.30
2022-09-23T17:19:10.362Z,4.15
2022-09-23T17:21:42.710Z,4.60
2022-09-23T17:24:15.499Z,5.13
2022-09-23T17:26:52.619Z,4.55
2022-09-23T17:29:30.370Z,5.20
2022-09-23T17:32:04.967Z,4.93
2022-09-23T17:34:37.695Z,4.60
2022-09-23T17:37:10.077Z,4.70
2022-09-23T17:39:43.203Z,5.80
2022-09-23T17:42:15.643Z,5.23
2022-09-23T17:44:49.041Z,5.38
2022-09-23T17:47:20.869Z,5.47
2022-09-23T17:49:54.835Z,6.70
2022-09-23T17:52:27.085Z,5.93
2022-09-23T17:54:59.738Z,4.73
2022-09-23T17:57:34.601Z,5.40
2022-09-23T18:00:07.519Z,5.47
2022-09-23T18:02:44.420Z,19.17
2022-09-23T18:05:16.903Z,5.13
2022-09-23T18:07:49.730Z,5.30
2022-09-23T18:10:21.578Z,5.00
2022-09-23T18:12:54.239Z,6.90
2022-09-23T18:15:26.904Z,7.18
2022-09-23T18:17:58.848Z,6.80
2022-09-23T18:20:32.157Z,6.13
2022-09-23T18:23:04.106Z,5.88
2022-09-23T18:25:39.528Z,7.00
2022-09-23T18:28:12.412Z,5.65
2022-09-23T18:30:58.025Z,5.50
2022-09-23T18:33:30.720Z,6.27
2022-09-23T18:36:04.907Z,6.30
2022-09-23T18:38:36.811Z,5.95
2022-09-23T18:41:09.718Z,6.10
2022-09-23T18:43:47.601Z,6.13
2022-09-23T18:46:25.034Z,5.87
2022-09-23T18:49:17.204Z,5.57
2022-09-23T18:51:56.142Z,6.28
2022-09-23T18:54:28.973Z,5.57
2022-09-23T18:57:01.684Z,6.28
2022-09-23T18:59:34.386Z,6.47
2022-09-23T19:02:08.657Z,5.70
2022-09-23T19:04:41.052Z,4.90
2022-09-23T19:07:13.280Z,4.97
2022-09-23T19:09:46.351Z,6.15
2022-09-23T19:12:18.636Z,5.67
2022-09-23T19:14:50.750Z,5.80
2022-09-23T19:17:23.422Z,5.82
2022-09-23T19:19:55.615Z,6.28
2022-09-23T19:22:28.000Z,6.05
2022-09-23T19:25:00.171Z,6.30
2022-09-23T19:27:34.956Z,5.82
2022-09-23T19:30:07.844Z,6.07
2022-09-23T19:32:41.636Z,5.75
2022-09-23T19:35:15.923Z,5.55
2022-09-23T19:37:49.644Z,5.80
2022-09-23T19:40:21.589Z,5.88
2022-09-23T19:42:54.529Z,5.72
2022-09-23T19:45:28.190Z,5.50
2022-09-23T19:48:02.506Z,6.38
2022-09-23T19:50:39.102Z,6.10
2022-09-23T19:53:11.558Z,5.70
2022-09-23T19:55:44.259Z,6.15
2022-09-23T19:58:16.966Z,5.30
2022-09-23T20:00:48.923Z,6.25
2022-09-23T20:03:21.663Z,5.60
2022-09-23T20:05:57.151Z,5.47
2022-09-23T20:08:37.131Z,5.90
2022-09-23T20:11:23.704Z,6.15
2022-09-23T20:14:04.475Z,5.50
2022-09-23T20:16:37.456Z,5.60
2022-09-23T20:19:10.453Z,5.90
2022-09-23T20:21:42.276Z,5.93
2022-09-23T20:24:15.062Z,5.32
2022-09-23T20:27:05.748Z,5.60
2022-09-23T20:29:37.951Z,5.20
2022-09-23T20:32:11.761Z,5.88
2022-09-23T20:34:46.615Z,6.97
2022-09-23T20:37:21.430Z,5.55
2022-09-23T20:39:53.608Z,5.45
2022-09-23T20:42:27.204Z,5.83
2022-09-23T20:44:59.131Z,5.80
2022-09-23T20:47:32.515Z,5.90
2022-09-23T20:50:04.789Z,5.38
2022-09-23T20:52:37.864Z,5.95
2022-09-23T20:55:10.306Z,6.10
2022-09-23T20:57:43.215Z,5.50
2022-09-23T21:00:16.337Z,5.68
2022-09-23T21:02:48.157Z,6.20
2022-09-23T21:05:21.207Z,6.35
2022-09-23T21:07:53.113Z,6.10
2022-09-23T21:10:26.332Z,6.38
2022-09-23T21:12:59.482Z,6.18
2022-09-23T21:15:32.815Z,5.90
2022-09-23T21:18:05.089Z,6.80
2022-09-23T21:20:37.767Z,5.70
2022-09-23T21:23:10.057Z,5.65
2022-09-23T21:25:44.925Z,6.28
2022-09-23T21:28:17.576Z,6.95
2022-09-23T21:30:52.101Z,7.35
2022-09-23T21:33:24.059Z,6.73
2022-09-23T21:35:58.785Z,6.90
2022-09-23T21:38:34.218Z,6.05
2022-09-23T21:41:15.070Z,6.78
2022-09-23T21:43:48.126Z,6.38
2022-09-23T21:46:22.286Z,8.87
2022-09-23T21:48:57.423Z,6.57
2022-09-23T21:51:37.972Z,6.47
2022-09-23T21:54:16.745Z,6.50
2022-09-23T21:56:49.193Z,6.55
2022-09-23T21:59:21.465Z,6.33
2022-09-23T22:01:54.559Z,6.22
2022-09-23T22:04:26.563Z,6.53
2022-09-23T22:07:00.544Z,6.57
2022-09-23T22:09:32.388Z,5.80
2022-09-23T22:12:05.419Z,6.63
2022-09-23T22:14:38.860Z,5.90
2022-09-23T22:17:12.432Z,5.53
2022-09-23T22:19:47.150Z,6.40
2022-09-23T22:22:19.932Z,6.45
2022-09-23T22:24:52.239Z,5.77
2022-09-23T22:27:27.514Z,6.57
2022-09-23T22:30:17.599Z,6.55
2022-09-23T22:32:54.925Z,6.50
2022-09-23T22:35:27.350Z,6.60
2022-09-23T22:38:01.247Z,6.33
2022-09-23T22:40:33.226Z,6.63
2022-09-23T22:43:05.757Z,6.07
2022-09-23T22:45:39.532Z,6.50
2022-09-23T22:48:13.886Z,6.03
2022-09-23T22:50:46.108Z,6.50
2022-09-23T22:53:19.023Z,6.82
2022-09-23T22:56:01.021Z,7.05
2022-09-23T22:58:33.466Z,6.65
2022-09-23T23:01:05.836Z,7.18
2022-09-23T23:03:40.576Z,6.93
2022-09-23T23:06:12.544Z,6.57
2022-09-23T23:08:45.158Z,6.95
2022-09-23T23:11:17.431Z,6.55
2022-09-23T23:13:50.273Z,6.97
2022-09-23T23:16:24.407Z,6.73
2022-09-23T23:18:56.834Z,7.00
2022-09-23T23:21:28.670Z,6.68
2022-09-23T23:24:04.702Z,6.28
2022-09-23T23:26:36.684Z,6.03
2022-09-23T23:29:12.149Z,6.27
2022-09-23T23:31:44.270Z,5.80
2022-09-23T23:34:20.044Z,6.38
2022-09-23T23:36:56.468Z,6.40
2022-09-23T23:39:29.046Z,5.90
2022-09-23T23:42:00.977Z,6.70
2022-09-23T23:44:34.732Z,6.28
2022-09-23T23:47:06.645Z,6.13
2022-09-23T23:49:39.275Z,6.53
2022-09-23T23:52:11.131Z,6.03
2022-09-23T23:54:44.337Z,5.33
2022-09-23T23:57:16.222Z,5.85
2022-09-23T23:59:48.779Z,6.90
